sensor_id;sensor_type;location;lat;lon;timestamp;P1;durP1;ratioP1;P2;durP2;ratioP2
6979;SDS011;3530;52.832;10.680;2023-07-24T00:00:49;2.60;;;2.50;;
6979;SDS011;3530;52.832;10.680;2023-07-24T00:03:35;2.95;;;2.67;;
6979;SDS011;3530;52.832;10.680;2023-07-24T00:06:21;2.50;;;2.30;;
6979;SDS011;3530;52.832;10.680;2023-07-24T00:09:06;3.38;;;2.40;;
6979;SDS011;3530;52.832;10.680;2023-07-24T00:11:52;2.42;;;2.28;;
6979;SDS011;3530;52.832;10.680;2023-07-24T00:14:37;2.88;;;2.53;;
6979;SDS011;3530;52.832;10.680;2023-07-24T00:17:23;2.72;;;2.53;;
6979;SDS011;3530;52.832;10.680;2023-07-24T00:20:09;2.42;;;2.22;;
6979;SDS011;3530;52.832;10.680;2023-07-24T00:22:55;2.38;;;2.22;;
6979;SDS011;3530;52.832;10.680;2023-07-24T00:25:40;2.55;;;2.35;;
6979;SDS011;3530;52.832;10.680;2023-07-24T00:28:26;3.17;;;2.40;;
6979;SDS011;3530;52.832;10.680;2023-07-24T00:31:11;3.63;;;2.53;;
6979;SDS011;3530;52.832;10.680;2023-07-24T00:33:57;2.60;;;2.40;;
6979;SDS011;3530;52.832;10.680;2023-07-24T00:36:45;2.15;;;2.05;;
6979;SDS011;3530;52.832;10.680;2023-07-24T00:39:31;2.30;;;2.10;;
6979;SDS011;3530;52.832;10.680;2023-07-24T00:42:16;2.20;;;2.10;;
6979;SDS011;3530;52.832;10.680;2023-07-24T00:45:02;2.38;;;2.10;;
6979;SDS011;3530;52.832;10.680;2023-07-24T00:47:48;1.83;;;1.73;;
6979;SDS011;3530;52.832;10.680;2023-07-24T00:50:34;2.03;;;1.92;;
6979;SDS011;3530;52.832;10.680;2023-07-24T00:53:20;1.58;;;1.55;;
6979;SDS011;3530;52.832;10.680;2023-07-24T00:56:06;2.42;;;1.92;;
6979;SDS011;3530;52.832;10.680;2023-07-24T00:58:52;2.00;;;1.90;;
6979;SDS011;3530;52.832;10.680;2023-07-24T01:01:40;1.90;;;1.80;;
6979;SDS011;3530;52.832;10.680;2023-07-24T01:04:27;2.60;;;2.05;;
6979;SDS011;3530;52.832;10.680;2023-07-24T01:07:13;1.88;;;1.77;;
6979;SDS011;3530;52.832;10.680;2023-07-24T01:09:58;2.85;;;2.65;;
6979;SDS011;3530;52.832;10.680;2023-07-24T01:15:48;1.95;;;1.83;;
6979;SDS011;3530;52.832;10.680;2023-07-24T01:18:39;1.90;;;1.80;;
6979;SDS011;3530;52.832;10.680;2023-07-24T01:21:29;2.35;;;2.17;;
6979;SDS011;3530;52.832;10.680;2023-07-24T01:24:24;2.08;;;1.98;;
6979;SDS011;3530;52.832;10.680;2023-07-24T01:27:25;2.22;;;2.13;;
6979;SDS011;3530;52.832;10.680;2023-07-24T01:30:12;2.30;;;2.10;;
6979;SDS011;3530;52.832;10.680;2023-07-24T01:32:58;1.90;;;1.80;;
6979;SDS011;3530;52.832;10.680;2023-07-24T01:35:44;2.00;;;1.80;;
6979;SDS011;3530;52.832;10.680;2023-07-24T01:38:31;2.00;;;1.90;;
6979;SDS011;3530;52.832;10.680;2023-07-24T01:41:17;2.30;;;1.80;;
6979;SDS011;3530;52.832;10.680;2023-07-24T01:44:02;2.22;;;2.13;;
6979;SDS011;3530;52.832;10.680;2023-07-24T01:46:48;2.20;;;2.10;;
6979;SDS011;3530;52.832;10.680;2023-07-24T01:49:34;3.97;;;2.85;;
6979;SDS011;3530;52.832;10.680;2023-07-24T01:52:20;1.77;;;1.67;;
6979;SDS011;3530;52.832;10.680;2023-07-24T01:55:05;1.90;;;1.80;;
6979;SDS011;3530;52.832;10.680;2023-07-24T01:57:51;2.33;;;1.90;;
6979;SDS011;3530;52.832;10.680;2023-07-24T02:00:37;2.42;;;2.00;;
6979;SDS011;3530;52.832;10.680;2023-07-24T02:03:22;2.00;;;1.90;;
6979;SDS011;3530;52.832;10.680;2023-07-24T02:06:08;1.88;;;1.80;;
6979;SDS011;3530;52.832;10.680;2023-07-24T02:08:54;2.00;;;1.90;;
6979;SDS011;3530;52.832;10.680;2023-07-24T02:11:40;1.90;;;1.80;;
6979;SDS011;3530;52.832;10.680;2023-07-24T02:14:25;2.17;;;2.08;;
6979;SDS011;3530;52.832;10.680;2023-07-24T02:17:12;3.10;;;2.22;;
6979;SDS011;3530;52.832;10.680;2023-07-24T02:19:57;2.40;;;2.30;;
6979;SDS011;3530;52.832;10.680;2023-07-24T02:22:43;2.25;;;2.15;;
6979;SDS011;3530;52.832;10.680;2023-07-24T02:25:29;3.00;;;2.25;;
6979;SDS011;3530;52.832;10.680;2023-07-24T02:28:14;2.22;;;2.13;;
6979;SDS011;3530;52.832;10.680;2023-07-24T02:31:00;2.17;;;2.03;;
6979;SDS011;3530;52.832;10.680;2023-07-24T02:33:46;2.45;;;2.25;;
6979;SDS011;3530;52.832;10.680;2023-07-24T02:36:31;2.55;;;2.28;;
6979;SDS011;3530;52.832;10.680;2023-07-24T02:39:17;2.33;;;2.22;;
6979;SDS011;3530;52.832;10.680;2023-07-24T02:42:03;2.80;;;2.60;;
6979;SDS011;3530;52.832;10.680;2023-07-24T02:44:49;2.22;;;2.13;;
6979;SDS011;3530;52.832;10.680;2023-07-24T02:47:34;2.70;;;2.50;;
6979;SDS011;3530;52.832;10.680;2023-07-24T02:50:20;2.60;;;2.40;;
6979;SDS011;3530;52.832;10.680;2023-07-24T02:53:05;2.60;;;2.40;;
6979;SDS011;3530;52.832;10.680;2023-07-24T02:55:51;2.80;;;2.60;;
6979;SDS011;3530;52.832;10.680;2023-07-24T02:58:37;2.50;;;2.35;;
6979;SDS011;3530;52.832;10.680;2023-07-24T03:01:22;3.63;;;2.38;;
6979;SDS011;3530;52.832;10.680;2023-07-24T03:04:08;2.10;;;2.00;;
6979;SDS011;3530;52.832;10.680;2023-07-24T03:06:54;3.40;;;2.60;;
6979;SDS011;3530;52.832;10.680;2023-07-24T03:09:39;2.40;;;2.30;;
6979;SDS011;3530;52.832;10.680;2023-07-24T03:12:25;2.78;;;2.67;;
6979;SDS011;3530;52.832;10.680;2023-07-24T03:15:11;3.05;;;2.85;;
6979;SDS011;3530;52.832;10.680;2023-07-24T03:17:56;3.33;;;3.10;;
6979;SDS011;3530;52.832;10.680;2023-07-24T03:20:42;3.22;;;3.03;;
6979;SDS011;3530;52.832;10.680;2023-07-24T03:23:28;3.30;;;3.00;;
6979;SDS011;3530;52.832;10.680;2023-07-24T03:26:13;2.75;;;2.55;;
6979;SDS011;3530;52.832;10.680;2023-07-24T03:28:59;2.83;;;2.63;;
6979;SDS011;3530;52.832;10.680;2023-07-24T03:31:45;3.88;;;3.38;;
6979;SDS011;3530;52.832;10.680;2023-07-24T03:34:31;3.05;;;2.85;;
6979;SDS011;3530;52.832;10.680;2023-07-24T03:37:16;2.97;;;2.78;;
6979;SDS011;3530;52.832;10.680;2023-07-24T03:40:02;2.72;;;2.53;;
6979;SDS011;3530;52.832;10.680;2023-07-24T03:42:48;3.78;;;3.42;;
6979;SDS011;3530;52.832;10.680;2023-07-24T03:45:34;3.35;;;3.15;;
6979;SDS011;3530;52.832;10.680;2023-07-24T03:48:19;4.07;;;3.30;;
6979;SDS011;3530;52.832;10.680;2023-07-24T03:51:05;2.92;;;2.72;;
6979;SDS011;3530;52.832;10.680;2023-07-24T03:53:52;6.78;;;3.78;;
6979;SDS011;3530;52.832;10.680;2023-07-24T03:56:38;4.28;;;3.30;;
6979;SDS011;3530;52.832;10.680;2023-07-24T03:59:23;3.72;;;3.50;;
6979;SDS011;3530;52.832;10.680;2023-07-24T04:02:09;3.20;;;2.97;;
6979;SDS011;3530;52.832;10.680;2023-07-24T04:04:55;3.95;;;3.65;;
6979;SDS011;3530;52.832;10.680;2023-07-24T04:07:40;3.53;;;3.13;;
6979;SDS011;3530;52.832;10.680;2023-07-24T04:10:26;3.65;;;3.35;;
6979;SDS011;3530;52.832;10.680;2023-07-24T04:13:12;4.15;;;3.85;;
6979;SDS011;3530;52.832;10.680;2023-07-24T04:15:58;4.93;;;3.67;;
6979;SDS011;3530;52.832;10.680;2023-07-24T04:18:44;3.22;;;2.95;;
6979;SDS011;3530;52.832;10.680;2023-07-24T04:21:30;4.13;;;3.83;;
6979;SDS011;3530;52.832;10.680;2023-07-24T04:24:16;3.13;;;2.92;;
6979;SDS011;3530;52.832;10.680;2023-07-24T04:27:01;3.60;;;3.30;;
6979;SDS011;3530;52.832;10.680;2023-07-24T04:29:47;3.58;;;3.33;;
6979;SDS011;3530;52.832;10.680;2023-07-24T04:32:33;3.25;;;3.05;;
6979;SDS011;3530;52.832;10.680;2023-07-24T04:35:18;3.13;;;2.92;;
6979;SDS011;3530;52.832;10.680;2023-07-24T04:38:04;3.95;;;3.65;;
6979;SDS011;3530;52.832;10.680;2023-07-24T04:40:50;3.67;;;3.22;;
6979;SDS011;3530;52.832;10.680;2023-07-24T04:43:35;4.45;;;3.90;;
6979;SDS011;3530;52.832;10.680;2023-07-24T04:46:21;4.40;;;4.00;;
6979;SDS011;3530;52.832;10.680;2023-07-24T04:49:07;4.28;;;3.88;;
6979;SDS011;3530;52.832;10.680;2023-07-24T04:51:52;3.33;;;3.13;;
6979;SDS011;3530;52.832;10.680;2023-07-24T04:54:38;4.13;;;3.65;;
6979;SDS011;3530;52.832;10.680;2023-07-24T04:57:23;3.83;;;3.60;;
6979;SDS011;3530;52.832;10.680;2023-07-24T05:00:09;3.30;;;3.10;;
6979;SDS011;3530;52.832;10.680;2023-07-24T05:02:55;3.75;;;3.45;;
6979;SDS011;3530;52.832;10.680;2023-07-24T05:05:41;3.80;;;3.50;;
6979;SDS011;3530;52.832;10.680;2023-07-24T05:08:27;3.65;;;3.45;;
6979;SDS011;3530;52.832;10.680;2023-07-24T05:11:12;4.72;;;4.20;;
6979;SDS011;3530;52.832;10.680;2023-07-24T05:13:58;4.03;;;3.72;;
6979;SDS011;3530;52.832;10.680;2023-07-24T05:16:44;3.55;;;3.33;;
6979;SDS011;3530;52.832;10.680;2023-07-24T05:19:29;4.00;;;3.72;;
6979;SDS011;3530;52.832;10.680;2023-07-24T05:22:15;3.83;;;3.35;;
6979;SDS011;3530;52.832;10.680;2023-07-24T05:25:01;3.05;;;2.85;;
6979;SDS011;3530;52.832;10.680;2023-07-24T05:27:46;7.30;;;3.92;;
6979;SDS011;3530;52.832;10.680;2023-07-24T05:30:32;8.40;;;5.43;;
6979;SDS011;3530;52.832;10.680;2023-07-24T05:33:18;8.40;;;4.85;;
6979;SDS011;3530;52.832;10.680;2023-07-24T05:36:04;5.45;;;3.72;;
6979;SDS011;3530;52.832;10.680;2023-07-24T05:38:51;3.22;;;3.03;;
6979;SDS011;3530;52.832;10.680;2023-07-24T05:41:37;4.78;;;4.03;;
6979;SDS011;3530;52.832;10.680;2023-07-24T05:44:23;3.35;;;3.08;;
6979;SDS011;3530;52.832;10.680;2023-07-24T05:47:09;3.30;;;3.10;;
6979;SDS011;3530;52.832;10.680;2023-07-24T05:49:54;4.25;;;3.10;;
6979;SDS011;3530;52.832;10.680;2023-07-24T05:52:40;5.53;;;3.92;;
6979;SDS011;3530;52.832;10.680;2023-07-24T05:55:26;3.97;;;3.67;;
6979;SDS011;3530;52.832;10.680;2023-07-24T05:58:11;4.45;;;3.60;;
6979;SDS011;3530;52.832;10.680;2023-07-24T06:00:57;4.75;;;3.38;;
6979;SDS011;3530;52.832;10.680;2023-07-24T06:03:43;6.20;;;3.95;;
6979;SDS011;3530;52.832;10.680;2023-07-24T06:06:28;2.03;;;1.92;;
6979;SDS011;3530;52.832;10.680;2023-07-24T06:09:14;6.07;;;4.32;;
6979;SDS011;3530;52.832;10.680;2023-07-24T06:11:59;5.00;;;3.08;;
6979;SDS011;3530;52.832;10.680;2023-07-24T06:14:45;4.97;;;3.72;;
6979;SDS011;3530;52.832;10.680;2023-07-24T06:17:31;4.20;;;2.33;;
6979;SDS011;3530;52.832;10.680;2023-07-24T06:20:16;2.78;;;2.58;;
6979;SDS011;3530;52.832;10.680;2023-07-24T06:23:02;1.63;;;1.63;;
6979;SDS011;3530;52.832;10.680;2023-07-24T06:25:49;1.98;;;1.88;;
6979;SDS011;3530;52.832;10.680;2023-07-24T06:28:37;5.60;;;2.40;;
6979;SDS011;3530;52.832;10.680;2023-07-24T06:31:22;2.30;;;2.20;;
6979;SDS011;3530;52.832;10.680;2023-07-24T06:34:08;2.08;;;1.98;;
6979;SDS011;3530;52.832;10.680;2023-07-24T06:36:53;2.08;;;1.98;;
6979;SDS011;3530;52.832;10.680;2023-07-24T06:39:39;3.83;;;2.42;;
6979;SDS011;3530;52.832;10.680;2023-07-24T06:42:25;2.00;;;1.90;;
6979;SDS011;3530;52.832;10.680;2023-07-24T06:45:10;2.30;;;2.20;;
6979;SDS011;3530;52.832;10.680;2023-07-24T06:47:56;1.90;;;1.80;;
6979;SDS011;3530;52.832;10.680;2023-07-24T06:50:42;2.25;;;2.13;;
6979;SDS011;3530;52.832;10.680;2023-07-24T06:53:27;1.67;;;1.58;;
6979;SDS011;3530;52.832;10.680;2023-07-24T06:56:13;1.80;;;1.70;;
6979;SDS011;3530;52.832;10.680;2023-07-24T06:58:59;2.25;;;1.70;;
6979;SDS011;3530;52.832;10.680;2023-07-24T07:01:44;2.30;;;2.10;;
6979;SDS011;3530;52.832;10.680;2023-07-24T07:04:30;5.30;;;2.08;;
6979;SDS011;3530;52.832;10.680;2023-07-24T07:07:16;1.92;;;1.83;;
6979;SDS011;3530;52.832;10.680;2023-07-24T07:10:01;2.63;;;1.83;;
6979;SDS011;3530;52.832;10.680;2023-07-24T07:12:47;1.80;;;1.70;;
6979;SDS011;3530;52.832;10.680;2023-07-24T07:15:33;9.52;;;2.63;;
6979;SDS011;3530;52.832;10.680;2023-07-24T07:18:18;2.42;;;2.10;;
6979;SDS011;3530;52.832;10.680;2023-07-24T07:21:04;1.98;;;1.88;;
6979;SDS011;3530;52.832;10.680;2023-07-24T07:23:50;4.10;;;2.10;;
6979;SDS011;3530;52.832;10.680;2023-07-24T07:26:35;2.30;;;2.10;;
6979;SDS011;3530;52.832;10.680;2023-07-24T07:29:21;1.80;;;1.70;;
6979;SDS011;3530;52.832;10.680;2023-07-24T07:32:07;1.80;;;1.70;;
6979;SDS011;3530;52.832;10.680;2023-07-24T07:34:53;1.92;;;1.83;;
6979;SDS011;3530;52.832;10.680;2023-07-24T07:37:39;1.77;;;1.67;;
6979;SDS011;3530;52.832;10.680;2023-07-24T07:40:25;2.03;;;1.92;;
6979;SDS011;3530;52.832;10.680;2023-07-24T07:43:12;2.10;;;2.00;;
6979;SDS011;3530;52.832;10.680;2023-07-24T07:45:57;1.80;;;1.70;;
6979;SDS011;3530;52.832;10.680;2023-07-24T07:48:44;3.40;;;2.20;;
6979;SDS011;3530;52.832;10.680;2023-07-24T07:51:31;1.83;;;1.70;;
6979;SDS011;3530;52.832;10.680;2023-07-24T07:54:17;2.03;;;1.92;;
6979;SDS011;3530;52.832;10.680;2023-07-24T07:57:03;2.22;;;2.13;;
6979;SDS011;3530;52.832;10.680;2023-07-24T07:59:49;2.00;;;1.90;;
6979;SDS011;3530;52.832;10.680;2023-07-24T08:02:35;2.75;;;2.35;;
6979;SDS011;3530;52.832;10.680;2023-07-24T08:05:24;2.22;;;2.03;;
6979;SDS011;3530;52.832;10.680;2023-07-24T08:08:10;2.50;;;1.83;;
6979;SDS011;3530;52.832;10.680;2023-07-24T08:10:56;2.50;;;2.30;;
6979;SDS011;3530;52.832;10.680;2023-07-24T08:13:42;3.15;;;2.25;;
6979;SDS011;3530;52.832;10.680;2023-07-24T08:16:27;2.25;;;2.05;;
6979;SDS011;3530;52.832;10.680;2023-07-24T08:19:13;3.60;;;2.42;;
6979;SDS011;3530;52.832;10.680;2023-07-24T08:21:59;4.55;;;2.67;;
6979;SDS011;3530;52.832;10.680;2023-07-24T08:24:44;2.28;;;2.08;;
6979;SDS011;3530;52.832;10.680;2023-07-24T08:27:30;2.20;;;2.10;;
6979;SDS011;3530;52.832;10.680;2023-07-24T08:30:17;3.47;;;2.50;;
6979;SDS011;3530;52.832;10.680;2023-07-24T08:33:03;2.70;;;2.15;;
6979;SDS011;3530;52.832;10.680;2023-07-24T08:36:02;2.28;;;2.08;;
6979;SDS011;3530;52.832;10.680;2023-07-24T08:38:51;2.83;;;2.58;;
6979;SDS011;3530;52.832;10.680;2023-07-24T08:41:37;4.85;;;2.25;;
6979;SDS011;3530;52.832;10.680;2023-07-24T08:44:23;3.03;;;2.00;;
6979;SDS011;3530;52.832;10.680;2023-07-24T08:47:10;2.47;;;2.30;;
6979;SDS011;3530;52.832;10.680;2023-07-24T08:49:59;3.22;;;2.17;;
6979;SDS011;3530;52.832;10.680;2023-07-24T08:52:44;2.92;;;2.33;;
6979;SDS011;3530;52.832;10.680;2023-07-24T08:55:32;2.38;;;2.17;;
6979;SDS011;3530;52.832;10.680;2023-07-24T08:58:17;2.65;;;2.45;;
6979;SDS011;3530;52.832;10.680;2023-07-24T09:01:03;2.85;;;2.13;;
6979;SDS011;3530;52.832;10.680;2023-07-24T09:03:49;3.17;;;1.95;;
6979;SDS011;3530;52.832;10.680;2023-07-24T09:06:34;3.10;;;1.90;;
6979;SDS011;3530;52.832;10.680;2023-07-24T09:09:21;2.63;;;2.42;;
6979;SDS011;3530;52.832;10.680;2023-07-24T09:12:06;2.60;;;2.22;;
6979;SDS011;3530;52.832;10.680;2023-07-24T09:15:05;2.50;;;1.80;;
6979;SDS011;3530;52.832;10.680;2023-07-24T09:17:52;3.88;;;2.35;;
6979;SDS011;3530;52.832;10.680;2023-07-24T09:20:39;2.97;;;2.53;;
6979;SDS011;3530;52.832;10.680;2023-07-24T09:23:27;2.10;;;2.00;;
6979;SDS011;3530;52.832;10.680;2023-07-24T09:26:13;1.90;;;1.80;;
6979;SDS011;3530;52.832;10.680;2023-07-24T09:28:58;1.88;;;1.77;;
6979;SDS011;3530;52.832;10.680;2023-07-24T09:31:44;2.60;;;1.88;;
6979;SDS011;3530;52.832;10.680;2023-07-24T09:34:31;1.90;;;1.80;;
6979;SDS011;3530;52.832;10.680;2023-07-24T09:40:09;1.75;;;1.65;;
6979;SDS011;3530;52.832;10.680;2023-07-24T09:42:55;1.75;;;1.65;;
6979;SDS011;3530;52.832;10.680;2023-07-24T09:45:41;1.92;;;1.83;;
6979;SDS011;3530;52.832;10.680;2023-07-24T09:48:28;1.83;;;1.73;;
6979;SDS011;3530;52.832;10.680;2023-07-24T09:51:14;1.65;;;1.58;;
6979;SDS011;3530;52.832;10.680;2023-07-24T09:54:14;1.90;;;1.80;;
6979;SDS011;3530;52.832;10.680;2023-07-24T09:57:01;1.40;;;1.40;;
6979;SDS011;3530;52.832;10.680;2023-07-24T09:59:48;3.00;;;1.50;;
6979;SDS011;3530;52.832;10.680;2023-07-24T10:02:34;2.50;;;1.67;;
6979;SDS011;3530;52.832;10.680;2023-07-24T10:05:20;2.95;;;1.58;;
6979;SDS011;3530;52.832;10.680;2023-07-24T10:08:06;1.70;;;1.60;;
6979;SDS011;3530;52.832;10.680;2023-07-24T10:10:52;1.60;;;1.58;;
6979;SDS011;3530;52.832;10.680;2023-07-24T10:13:39;1.77;;;1.67;;
6979;SDS011;3530;52.832;10.680;2023-07-24T10:16:25;2.15;;;2.00;;
6979;SDS011;3530;52.832;10.680;2023-07-24T10:19:14;1.95;;;1.85;;
6979;SDS011;3530;52.832;10.680;2023-07-24T10:22:01;1.60;;;1.33;;
6979;SDS011;3530;52.832;10.680;2023-07-24T10:24:48;1.50;;;1.50;;
6979;SDS011;3530;52.832;10.680;2023-07-24T10:27:43;1.50;;;1.40;;
6979;SDS011;3530;52.832;10.680;2023-07-24T10:30:30;1.63;;;1.52;;
6979;SDS011;3530;52.832;10.680;2023-07-24T10:33:20;2.25;;;1.25;;
6979;SDS011;3530;52.832;10.680;2023-07-24T10:36:07;1.35;;;1.35;;
6979;SDS011;3530;52.832;10.680;2023-07-24T10:38:56;1.80;;;1.50;;
6979;SDS011;3530;52.832;10.680;2023-07-24T10:41:42;1.60;;;1.40;;
6979;SDS011;3530;52.832;10.680;2023-07-24T10:44:33;1.50;;;1.50;;
6979;SDS011;3530;52.832;10.680;2023-07-24T10:47:18;1.35;;;1.35;;
6979;SDS011;3530;52.832;10.680;2023-07-24T10:50:06;2.55;;;1.70;;
6979;SDS011;3530;52.832;10.680;2023-07-24T10:52:52;1.63;;;1.52;;
6979;SDS011;3530;52.832;10.680;2023-07-24T10:55:37;1.42;;;1.42;;
6979;SDS011;3530;52.832;10.680;2023-07-24T10:58:24;1.50;;;1.50;;
6979;SDS011;3530;52.832;10.680;2023-07-24T11:01:10;1.38;;;1.38;;
6979;SDS011;3530;52.832;10.680;2023-07-24T11:03:56;1.80;;;1.70;;
6979;SDS011;3530;52.832;10.680;2023-07-24T11:06:41;1.33;;;1.33;;
6979;SDS011;3530;52.832;10.680;2023-07-24T11:09:34;1.88;;;1.77;;
6979;SDS011;3530;52.832;10.680;2023-07-24T11:12:24;1.70;;;1.60;;
6979;SDS011;3530;52.832;10.680;2023-07-24T11:15:12;1.35;;;1.35;;
6979;SDS011;3530;52.832;10.680;2023-07-24T11:17:58;2.10;;;2.00;;
6979;SDS011;3530;52.832;10.680;2023-07-24T11:20:45;1.63;;;1.58;;
6979;SDS011;3530;52.832;10.680;2023-07-24T11:23:44;1.73;;;1.63;;
6979;SDS011;3530;52.832;10.680;2023-07-24T11:26:36;1.80;;;1.70;;
6979;SDS011;3530;52.832;10.680;2023-07-24T11:29:23;4.60;;;2.00;;
6979;SDS011;3530;52.832;10.680;2023-07-24T11:32:08;1.92;;;1.70;;
6979;SDS011;3530;52.832;10.680;2023-07-24T11:34:54;1.60;;;1.60;;
6979;SDS011;3530;52.832;10.680;2023-07-24T11:37:40;2.03;;;1.92;;
6979;SDS011;3530;52.832;10.680;2023-07-24T11:43:22;2.17;;;2.08;;
6979;SDS011;3530;52.832;10.680;2023-07-24T11:46:08;2.58;;;2.38;;
6979;SDS011;3530;52.832;10.680;2023-07-24T11:48:55;2.10;;;1.95;;
6979;SDS011;3530;52.832;10.680;2023-07-24T11:51:42;2.03;;;1.92;;
6979;SDS011;3530;52.832;10.680;2023-07-24T11:54:27;2.15;;;2.05;;
6979;SDS011;3530;52.832;10.680;2023-07-24T11:57:16;2.30;;;2.20;;
6979;SDS011;3530;52.832;10.680;2023-07-24T12:00:02;2.40;;;2.30;;
6979;SDS011;3530;52.832;10.680;2023-07-24T12:02:49;2.20;;;2.10;;
6979;SDS011;3530;52.832;10.680;2023-07-24T12:05:39;2.10;;;2.00;;
6979;SDS011;3530;52.832;10.680;2023-07-24T12:08:30;2.33;;;2.22;;
6979;SDS011;3530;52.832;10.680;2023-07-24T12:11:16;2.13;;;2.03;;
6979;SDS011;3530;52.832;10.680;2023-07-24T12:14:03;3.58;;;2.50;;
6979;SDS011;3530;52.832;10.680;2023-07-24T12:16:49;2.55;;;2.45;;
6979;SDS011;3530;52.832;10.680;2023-07-24T12:19:35;6.25;;;2.70;;
6979;SDS011;3530;52.832;10.680;2023-07-24T12:22:21;5.60;;;3.15;;
6979;SDS011;3530;52.832;10.680;2023-07-24T12:25:07;3.13;;;2.28;;
6979;SDS011;3530;52.832;10.680;2023-07-24T12:27:53;2.03;;;1.92;;
6979;SDS011;3530;52.832;10.680;2023-07-24T12:30:39;2.38;;;2.20;;
6979;SDS011;3530;52.832;10.680;2023-07-24T12:33:24;3.13;;;1.92;;
6979;SDS011;3530;52.832;10.680;2023-07-24T12:36:10;1.83;;;1.73;;
6979;SDS011;3530;52.832;10.680;2023-07-24T12:38:56;1.60;;;1.60;;
6979;SDS011;3530;52.832;10.680;2023-07-24T12:41:41;4.13;;;2.05;;
6979;SDS011;3530;52.832;10.680;2023-07-24T12:44:27;1.55;;;1.55;;
6979;SDS011;3530;52.832;10.680;2023-07-24T12:47:12;2.20;;;2.00;;
6979;SDS011;3530;52.832;10.680;2023-07-24T12:49:58;1.98;;;1.88;;
6979;SDS011;3530;52.832;10.680;2023-07-24T12:52:45;1.60;;;1.55;;
6979;SDS011;3530;52.832;10.680;2023-07-24T12:55:31;1.60;;;1.60;;
6979;SDS011;3530;52.832;10.680;2023-07-24T12:58:16;1.75;;;1.70;;
6979;SDS011;3530;52.832;10.680;2023-07-24T13:01:02;1.73;;;1.73;;
6979;SDS011;3530;52.832;10.680;2023-07-24T13:03:48;1.88;;;1.77;;
6979;SDS011;3530;52.832;10.680;2023-07-24T13:06:34;2.30;;;1.80;;
6979;SDS011;3530;52.832;10.680;2023-07-24T13:09:19;2.10;;;1.70;;
6979;SDS011;3530;52.832;10.680;2023-07-24T13:12:05;1.50;;;1.50;;
6979;SDS011;3530;52.832;10.680;2023-07-24T13:14:51;2.65;;;1.65;;
6979;SDS011;3530;52.832;10.680;2023-07-24T13:17:37;1.92;;;1.85;;
6979;SDS011;3530;52.832;10.680;2023-07-24T13:20:24;1.90;;;1.80;;
6979;SDS011;3530;52.832;10.680;2023-07-24T13:23:10;1.77;;;1.67;;
6979;SDS011;3530;52.832;10.680;2023-07-24T13:25:55;2.13;;;2.03;;
6979;SDS011;3530;52.832;10.680;2023-07-24T13:28:41;1.40;;;1.40;;
6979;SDS011;3530;52.832;10.680;2023-07-24T13:31:26;1.80;;;1.70;;
6979;SDS011;3530;52.832;10.680;2023-07-24T13:34:14;1.65;;;1.55;;
6979;SDS011;3530;52.832;10.680;2023-07-24T13:36:59;1.80;;;1.70;;
6979;SDS011;3530;52.832;10.680;2023-07-24T13:39:45;1.63;;;1.55;;
6979;SDS011;3530;52.832;10.680;2023-07-24T13:42:31;1.63;;;1.52;;
6979;SDS011;3530;52.832;10.680;2023-07-24T13:45:16;1.95;;;1.52;;
6979;SDS011;3530;52.832;10.680;2023-07-24T13:48:02;2.50;;;1.73;;
6979;SDS011;3530;52.832;10.680;2023-07-24T13:50:49;1.85;;;1.70;;
6979;SDS011;3530;52.832;10.680;2023-07-24T13:53:35;1.88;;;1.77;;
6979;SDS011;3530;52.832;10.680;2023-07-24T13:56:20;1.90;;;1.80;;
6979;SDS011;3530;52.832;10.680;2023-07-24T13:59:08;2.03;;;1.92;;
6979;SDS011;3530;52.832;10.680;2023-07-24T14:01:54;2.08;;;1.80;;
6979;SDS011;3530;52.832;10.680;2023-07-24T14:04:39;2.20;;;1.73;;
6979;SDS011;3530;52.832;10.680;2023-07-24T14:07:25;1.92;;;1.83;;
6979;SDS011;3530;52.832;10.680;2023-07-24T14:10:11;1.70;;;1.70;;
6979;SDS011;3530;52.832;10.680;2023-07-24T14:12:56;1.90;;;1.80;;
6979;SDS011;3530;52.832;10.680;2023-07-24T14:15:43;2.30;;;2.20;;
6979;SDS011;3530;52.832;10.680;2023-07-24T14:18:28;2.33;;;1.77;;
6979;SDS011;3530;52.832;10.680;2023-07-24T14:21:14;2.25;;;1.73;;
6979;SDS011;3530;52.832;10.680;2023-07-24T14:24:00;1.77;;;1.67;;
6979;SDS011;3530;52.832;10.680;2023-07-24T14:26:45;2.20;;;2.00;;
6979;SDS011;3530;52.832;10.680;2023-07-24T14:29:31;1.55;;;1.55;;
6979;SDS011;3530;52.832;10.680;2023-07-24T14:32:17;1.88;;;1.77;;
6979;SDS011;3530;52.832;10.680;2023-07-24T14:35:02;1.88;;;1.77;;
6979;SDS011;3530;52.832;10.680;2023-07-24T14:37:48;1.83;;;1.77;;
6979;SDS011;3530;52.832;10.680;2023-07-24T14:40:34;2.05;;;1.90;;
6979;SDS011;3530;52.832;10.680;2023-07-24T14:43:19;1.77;;;1.67;;
6979;SDS011;3530;52.832;10.680;2023-07-24T14:46:05;1.80;;;1.70;;
6979;SDS011;3530;52.832;10.680;2023-07-24T14:48:51;2.08;;;1.98;;
6979;SDS011;3530;52.832;10.680;2023-07-24T14:51:37;2.25;;;2.15;;
6979;SDS011;3530;52.832;10.680;2023-07-24T14:54:22;2.03;;;1.92;;
6979;SDS011;3530;52.832;10.680;2023-07-24T14:57:08;1.80;;;1.70;;
6979;SDS011;3530;52.832;10.680;2023-07-24T14:59:56;1.83;;;1.77;;
6979;SDS011;3530;52.832;10.680;2023-07-24T15:02:42;1.83;;;1.73;;
6979;SDS011;3530;52.832;10.680;2023-07-24T15:05:27;1.60;;;1.50;;
6979;SDS011;3530;52.832;10.680;2023-07-24T15:08:13;3.17;;;1.75;;
6979;SDS011;3530;52.832;10.680;2023-07-24T15:10:59;1.77;;;1.67;;
6979;SDS011;3530;52.832;10.680;2023-07-24T15:13:44;2.15;;;2.05;;
6979;SDS011;3530;52.832;10.680;2023-07-24T15:16:30;2.10;;;2.00;;
6979;SDS011;3530;52.832;10.680;2023-07-24T15:19:16;2.53;;;1.80;;
6979;SDS011;3530;52.832;10.680;2023-07-24T15:22:01;2.50;;;2.35;;
6979;SDS011;3530;52.832;10.680;2023-07-24T15:24:47;1.77;;;1.67;;
6979;SDS011;3530;52.832;10.680;2023-07-24T15:27:33;3.67;;;1.77;;
6979;SDS011;3530;52.832;10.680;2023-07-24T15:30:18;1.90;;;1.80;;
6979;SDS011;3530;52.832;10.680;2023-07-24T15:33:04;2.20;;;2.10;;
6979;SDS011;3530;52.832;10.680;2023-07-24T15:35:50;2.20;;;2.10;;
6979;SDS011;3530;52.832;10.680;2023-07-24T15:38:35;1.95;;;1.85;;
6979;SDS011;3530;52.832;10.680;2023-07-24T15:41:21;2.10;;;1.95;;
6979;SDS011;3530;52.832;10.680;2023-07-24T15:44:07;2.15;;;2.03;;
6979;SDS011;3530;52.832;10.680;2023-07-24T15:46:52;2.10;;;2.00;;
6979;SDS011;3530;52.832;10.680;2023-07-24T15:49:38;2.03;;;1.95;;
6979;SDS011;3530;52.832;10.680;2023-07-24T15:52:24;1.90;;;1.80;;
6979;SDS011;3530;52.832;10.680;2023-07-24T15:55:09;2.20;;;2.10;;
6979;SDS011;3530;52.832;10.680;2023-07-24T15:57:55;2.47;;;2.30;;
6979;SDS011;3530;52.832;10.680;2023-07-24T16:00:41;2.42;;;2.33;;
6979;SDS011;3530;52.832;10.680;2023-07-24T16:03:27;2.10;;;2.00;;
6979;SDS011;3530;52.832;10.680;2023-07-24T16:06:12;2.22;;;2.00;;
6979;SDS011;3530;52.832;10.680;2023-07-24T16:09:00;2.30;;;2.20;;
6979;SDS011;3530;52.832;10.680;2023-07-24T16:11:45;2.03;;;1.92;;
6979;SDS011;3530;52.832;10.680;2023-07-24T16:14:32;2.53;;;2.33;;
6979;SDS011;3530;52.832;10.680;2023-07-24T16:17:17;3.35;;;2.33;;
6979;SDS011;3530;52.832;10.680;2023-07-24T16:20:03;2.03;;;1.92;;
6979;SDS011;3530;52.832;10.680;2023-07-24T16:22:49;2.10;;;2.00;;
6979;SDS011;3530;52.832;10.680;2023-07-24T16:25:35;2.10;;;2.00;;
6979;SDS011;3530;52.832;10.680;2023-07-24T16:28:21;2.30;;;2.20;;
6979;SDS011;3530;52.832;10.680;2023-07-24T16:31:07;2.30;;;2.10;;
6979;SDS011;3530;52.832;10.680;2023-07-24T16:33:53;1.70;;;1.60;;
6979;SDS011;3530;52.832;10.680;2023-07-24T16:36:39;1.90;;;1.80;;
6979;SDS011;3530;52.832;10.680;2023-07-24T16:39:24;2.00;;;1.90;;
6979;SDS011;3530;52.832;10.680;2023-07-24T16:42:11;1.83;;;1.73;;
6979;SDS011;3530;52.832;10.680;2023-07-24T16:44:57;2.00;;;1.90;;
6979;SDS011;3530;52.832;10.680;2023-07-24T16:47:42;2.17;;;2.08;;
6979;SDS011;3530;52.832;10.680;2023-07-24T16:50:28;1.65;;;1.65;;
6979;SDS011;3530;52.832;10.680;2023-07-24T16:53:14;2.00;;;1.90;;
6979;SDS011;3530;52.832;10.680;2023-07-24T16:56:00;2.10;;;2.00;;
6979;SDS011;3530;52.832;10.680;2023-07-24T16:58:46;2.00;;;1.90;;
6979;SDS011;3530;52.832;10.680;2023-07-24T17:01:32;2.00;;;1.75;;
6979;SDS011;3530;52.832;10.680;2023-07-24T17:04:18;2.10;;;1.90;;